sensor_id;sensor_type;location;lat;lon;timestamp;P1;durP1;ratioP1;P2;durP2;ratioP2
26516;SDS011;14190;51.342;6.338;2023-02-15T00:01:04;56.42;;;30.15;;
26516;SDS011;14190;51.342;6.338;2023-02-15T00:03:25;59.27;;;30.35;;
26516;SDS011;14190;51.342;6.338;2023-02-15T00:05:52;58.80;;;31.42;;
26516;SDS011;14190;51.342;6.338;2023-02-15T00:08:19;60.50;;;31.68;;
26516;SDS011;14190;51.342;6.338;2023-02-15T00:10:47;62.93;;;32.17;;
26516;SDS011;14190;51.342;6.338;2023-02-15T00:13:14;60.20;;;30.50;;
26516;SDS011;14190;51.342;6.338;2023-02-15T00:15:41;56.23;;;31.00;;
26516;SDS011;14190;51.342;6.338;2023-02-15T00:18:09;56.75;;;31.05;;
26516;SDS011;14190;51.342;6.338;2023-02-15T00:20:36;53.28;;;31.37;;
26516;SDS011;14190;51.342;6.338;2023-02-15T00:23:03;57.65;;;30.88;;
26516;SDS011;14190;51.342;6.338;2023-02-15T00:25:31;63.15;;;32.50;;
26516;SDS011;14190;51.342;6.338;2023-02-15T00:27:59;58.08;;;31.70;;
26516;SDS011;14190;51.342;6.338;2023-02-15T00:30:27;57.80;;;31.93;;
26516;SDS011;14190;51.342;6.338;2023-02-15T00:32:54;56.25;;;31.57;;
26516;SDS011;14190;51.342;6.338;2023-02-15T00:35:21;60.10;;;31.75;;
26516;SDS011;14190;51.342;6.338;2023-02-15T00:37:49;61.20;;;31.30;;
26516;SDS011;14190;51.342;6.338;2023-02-15T00:40:16;60.10;;;31.35;;
26516;SDS011;14190;51.342;6.338;2023-02-15T00:42:43;61.48;;;32.53;;
26516;SDS011;14190;51.342;6.338;2023-02-15T00:45:11;62.27;;;31.50;;
26516;SDS011;14190;51.342;6.338;2023-02-15T00:47:38;62.75;;;32.03;;
26516;SDS011;14190;51.342;6.338;2023-02-15T00:50:06;64.53;;;32.88;;
26516;SDS011;14190;51.342;6.338;2023-02-15T00:52:33;61.00;;;32.28;;
26516;SDS011;14190;51.342;6.338;2023-02-15T00:55:02;63.98;;;33.40;;
26516;SDS011;14190;51.342;6.338;2023-02-15T00:57:29;63.08;;;33.10;;
26516;SDS011;14190;51.342;6.338;2023-02-15T00:59:57;64.42;;;33.05;;
26516;SDS011;14190;51.342;6.338;2023-02-15T01:02:26;66.45;;;33.92;;
26516;SDS011;14190;51.342;6.338;2023-02-15T01:04:54;65.57;;;32.98;;
26516;SDS011;14190;51.342;6.338;2023-02-15T01:07:22;64.95;;;33.23;;
26516;SDS011;14190;51.342;6.338;2023-02-15T01:09:49;64.85;;;33.42;;
26516;SDS011;14190;51.342;6.338;2023-02-15T01:12:16;65.25;;;33.65;;
26516;SDS011;14190;51.342;6.338;2023-02-15T01:14:45;70.32;;;33.75;;
26516;SDS011;14190;51.342;6.338;2023-02-15T01:17:13;69.60;;;33.28;;
26516;SDS011;14190;51.342;6.338;2023-02-15T01:19:40;66.37;;;33.73;;
26516;SDS011;14190;51.342;6.338;2023-02-15T01:22:07;68.35;;;34.83;;
26516;SDS011;14190;51.342;6.338;2023-02-15T01:24:35;64.82;;;34.40;;
26516;SDS011;14190;51.342;6.338;2023-02-15T01:27:02;70.08;;;35.30;;
26516;SDS011;14190;51.342;6.338;2023-02-15T01:29:30;67.78;;;34.58;;
26516;SDS011;14190;51.342;6.338;2023-02-15T01:31:57;64.90;;;35.13;;
26516;SDS011;14190;51.342;6.338;2023-02-15T01:34:24;72.58;;;36.33;;
26516;SDS011;14190;51.342;6.338;2023-02-15T01:36:52;66.20;;;34.75;;
26516;SDS011;14190;51.342;6.338;2023-02-15T01:39:19;72.72;;;33.28;;
26516;SDS011;14190;51.342;6.338;2023-02-15T01:41:46;70.85;;;34.25;;
26516;SDS011;14190;51.342;6.338;2023-02-15T01:47:02;66.75;;;33.78;;
26516;SDS011;14190;51.342;6.338;2023-02-15T01:49:30;70.17;;;35.75;;
26516;SDS011;14190;51.342;6.338;2023-02-15T01:51:59;67.47;;;35.25;;
26516;SDS011;14190;51.342;6.338;2023-02-15T01:54:31;73.25;;;33.73;;
26516;SDS011;14190;51.342;6.338;2023-02-15T01:57:00;74.58;;;35.63;;
26516;SDS011;14190;51.342;6.338;2023-02-15T01:59:29;68.85;;;33.30;;
26516;SDS011;14190;51.342;6.338;2023-02-15T02:01:58;62.83;;;33.92;;
26516;SDS011;14190;51.342;6.338;2023-02-15T02:04:29;67.90;;;33.63;;
26516;SDS011;14190;51.342;6.338;2023-02-15T02:06:55;69.03;;;34.75;;
26516;SDS011;14190;51.342;6.338;2023-02-15T02:09:24;74.65;;;34.45;;
26516;SDS011;14190;51.342;6.338;2023-02-15T02:11:51;70.32;;;35.45;;
26516;SDS011;14190;51.342;6.338;2023-02-15T02:14:20;73.92;;;37.60;;
26516;SDS011;14190;51.342;6.338;2023-02-15T02:16:58;69.35;;;36.28;;
26516;SDS011;14190;51.342;6.338;2023-02-15T02:19:41;73.05;;;35.40;;
26516;SDS011;14190;51.342;6.338;2023-02-15T02:22:10;79.82;;;38.13;;
26516;SDS011;14190;51.342;6.338;2023-02-15T02:24:53;72.25;;;36.05;;
26516;SDS011;14190;51.342;6.338;2023-02-15T02:30:16;79.72;;;37.38;;
26516;SDS011;14190;51.342;6.338;2023-02-15T02:35:33;75.03;;;36.93;;
26516;SDS011;14190;51.342;6.338;2023-02-15T02:38:04;74.15;;;36.23;;
26516;SDS011;14190;51.342;6.338;2023-02-15T02:40:46;77.85;;;39.10;;
26516;SDS011;14190;51.342;6.338;2023-02-15T02:43:22;74.60;;;37.40;;
26516;SDS011;14190;51.342;6.338;2023-02-15T02:45:57;81.08;;;38.28;;
26516;SDS011;14190;51.342;6.338;2023-02-15T02:48:25;79.97;;;37.93;;
26516;SDS011;14190;51.342;6.338;2023-02-15T02:50:53;78.97;;;36.15;;
26516;SDS011;14190;51.342;6.338;2023-02-15T02:53:20;78.52;;;37.33;;
26516;SDS011;14190;51.342;6.338;2023-02-15T02:58:42;76.90;;;36.65;;
26516;SDS011;14190;51.342;6.338;2023-02-15T03:01:13;77.40;;;36.53;;
26516;SDS011;14190;51.342;6.338;2023-02-15T03:03:42;79.47;;;38.78;;
26516;SDS011;14190;51.342;6.338;2023-02-15T03:06:16;82.20;;;38.08;;
26516;SDS011;14190;51.342;6.338;2023-02-15T03:08:47;81.53;;;40.33;;
26516;SDS011;14190;51.342;6.338;2023-02-15T03:11:08;80.72;;;38.70;;
26516;SDS011;14190;51.342;6.338;2023-02-15T03:13:36;82.50;;;37.70;;
26516;SDS011;14190;51.342;6.338;2023-02-15T03:16:04;79.92;;;37.80;;
26516;SDS011;14190;51.342;6.338;2023-02-15T03:18:55;73.22;;;37.03;;
26516;SDS011;14190;51.342;6.338;2023-02-15T03:21:35;84.52;;;38.60;;
26516;SDS011;14190;51.342;6.338;2023-02-15T03:23:54;76.00;;;38.00;;
26516;SDS011;14190;51.342;6.338;2023-02-15T03:26:22;92.00;;;39.75;;
26516;SDS011;14190;51.342;6.338;2023-02-15T03:28:52;80.55;;;38.70;;
26516;SDS011;14190;51.342;6.338;2023-02-15T03:31:20;77.15;;;37.67;;
26516;SDS011;14190;51.342;6.338;2023-02-15T03:33:53;77.27;;;37.05;;
26516;SDS011;14190;51.342;6.338;2023-02-15T03:36:22;71.72;;;36.42;;
26516;SDS011;14190;51.342;6.338;2023-02-15T03:38:51;79.65;;;38.80;;
26516;SDS011;14190;51.342;6.338;2023-02-15T03:41:18;77.27;;;38.20;;
26516;SDS011;14190;51.342;6.338;2023-02-15T03:43:52;77.32;;;37.67;;
26516;SDS011;14190;51.342;6.338;2023-02-15T03:46:27;77.95;;;36.77;;
26516;SDS011;14190;51.342;6.338;2023-02-15T03:48:58;80.62;;;37.55;;
26516;SDS011;14190;51.342;6.338;2023-02-15T03:51:27;85.90;;;39.70;;
26516;SDS011;14190;51.342;6.338;2023-02-15T03:54:07;84.45;;;40.28;;
26516;SDS011;14190;51.342;6.338;2023-02-15T03:56:36;77.47;;;37.25;;
26516;SDS011;14190;51.342;6.338;2023-02-15T03:59:04;75.05;;;37.93;;
26516;SDS011;14190;51.342;6.338;2023-02-15T04:01:56;76.53;;;37.13;;
26516;SDS011;14190;51.342;6.338;2023-02-15T04:06:54;87.92;;;38.75;;
26516;SDS011;14190;51.342;6.338;2023-02-15T04:09:21;79.12;;;38.15;;
26516;SDS011;14190;51.342;6.338;2023-02-15T04:12:07;82.95;;;39.65;;
26516;SDS011;14190;51.342;6.338;2023-02-15T04:14:35;79.15;;;38.73;;
26516;SDS011;14190;51.342;6.338;2023-02-15T04:17:20;80.55;;;38.90;;
26516;SDS011;14190;51.342;6.338;2023-02-15T04:19:48;84.80;;;39.30;;
26516;SDS011;14190;51.342;6.338;2023-02-15T04:22:34;79.77;;;37.10;;
26516;SDS011;14190;51.342;6.338;2023-02-15T04:25:19;79.22;;;38.08;;
26516;SDS011;14190;51.342;6.338;2023-02-15T04:27:47;83.25;;;38.42;;
26516;SDS011;14190;51.342;6.338;2023-02-15T04:30:15;82.57;;;38.33;;
26516;SDS011;14190;51.342;6.338;2023-02-15T04:32:44;83.07;;;37.28;;
26516;SDS011;14190;51.342;6.338;2023-02-15T04:35:12;80.12;;;38.63;;
26516;SDS011;14190;51.342;6.338;2023-02-15T04:37:39;84.85;;;37.28;;
26516;SDS011;14190;51.342;6.338;2023-02-15T04:40:07;87.33;;;39.65;;
26516;SDS011;14190;51.342;6.338;2023-02-15T04:42:35;78.55;;;38.05;;
26516;SDS011;14190;51.342;6.338;2023-02-15T04:45:03;81.75;;;37.60;;
26516;SDS011;14190;51.342;6.338;2023-02-15T04:47:30;76.37;;;36.77;;
26516;SDS011;14190;51.342;6.338;2023-02-15T04:49:57;82.57;;;38.65;;
26516;SDS011;14190;51.342;6.338;2023-02-15T04:52:25;77.78;;;37.25;;
26516;SDS011;14190;51.342;6.338;2023-02-15T04:54:53;81.53;;;37.95;;
26516;SDS011;14190;51.342;6.338;2023-02-15T04:57:20;83.25;;;37.98;;
26516;SDS011;14190;51.342;6.338;2023-02-15T04:59:47;87.67;;;37.58;;
26516;SDS011;14190;51.342;6.338;2023-02-15T05:02:15;83.40;;;38.02;;
26516;SDS011;14190;51.342;6.338;2023-02-15T05:04:42;85.10;;;38.42;;
26516;SDS011;14190;51.342;6.338;2023-02-15T05:07:09;82.67;;;38.08;;
26516;SDS011;14190;51.342;6.338;2023-02-15T05:09:37;80.15;;;37.50;;
26516;SDS011;14190;51.342;6.338;2023-02-15T05:12:04;78.30;;;35.75;;
26516;SDS011;14190;51.342;6.338;2023-02-15T05:14:32;79.12;;;36.08;;
26516;SDS011;14190;51.342;6.338;2023-02-15T05:16:59;83.47;;;38.67;;
26516;SDS011;14190;51.342;6.338;2023-02-15T05:19:27;88.00;;;39.18;;
26516;SDS011;14190;51.342;6.338;2023-02-15T05:21:55;83.05;;;37.98;;
26516;SDS011;14190;51.342;6.338;2023-02-15T05:24:22;74.92;;;35.92;;
26516;SDS011;14190;51.342;6.338;2023-02-15T05:27:10;80.57;;;36.88;;
26516;SDS011;14190;51.342;6.338;2023-02-15T05:29:55;78.87;;;35.92;;
26516;SDS011;14190;51.342;6.338;2023-02-15T05:32:22;87.08;;;37.45;;
26516;SDS011;14190;51.342;6.338;2023-02-15T05:34:49;82.62;;;37.73;;
26516;SDS011;14190;51.342;6.338;2023-02-15T05:37:17;81.95;;;37.35;;
26516;SDS011;14190;51.342;6.338;2023-02-15T05:39:44;78.42;;;35.30;;
26516;SDS011;14190;51.342;6.338;2023-02-15T05:42:11;80.95;;;37.03;;
26516;SDS011;14190;51.342;6.338;2023-02-15T05:44:39;81.47;;;36.53;;
26516;SDS011;14190;51.342;6.338;2023-02-15T05:47:06;83.70;;;37.53;;
26516;SDS011;14190;51.342;6.338;2023-02-15T05:49:33;80.00;;;35.83;;
26516;SDS011;14190;51.342;6.338;2023-02-15T05:52:02;87.08;;;36.15;;
26516;SDS011;14190;51.342;6.338;2023-02-15T05:54:29;87.85;;;37.93;;
26516;SDS011;14190;51.342;6.338;2023-02-15T05:56:57;87.95;;;36.20;;
26516;SDS011;14190;51.342;6.338;2023-02-15T05:59:24;77.78;;;35.75;;
26516;SDS011;14190;51.342;6.338;2023-02-15T06:01:51;83.82;;;36.28;;
26516;SDS011;14190;51.342;6.338;2023-02-15T06:04:19;81.97;;;36.85;;
26516;SDS011;14190;51.342;6.338;2023-02-15T06:06:46;78.33;;;34.92;;
26516;SDS011;14190;51.342;6.338;2023-02-15T06:09:13;84.62;;;37.42;;
26516;SDS011;14190;51.342;6.338;2023-02-15T06:11:41;81.57;;;36.83;;
26516;SDS011;14190;51.342;6.338;2023-02-15T06:14:08;80.03;;;35.60;;
26516;SDS011;14190;51.342;6.338;2023-02-15T06:16:36;86.70;;;38.48;;
26516;SDS011;14190;51.342;6.338;2023-02-15T06:19:03;82.50;;;36.68;;
26516;SDS011;14190;51.342;6.338;2023-02-15T06:21:31;91.25;;;37.85;;
26516;SDS011;14190;51.342;6.338;2023-02-15T06:23:58;84.58;;;37.75;;
26516;SDS011;14190;51.342;6.338;2023-02-15T06:26:25;81.32;;;37.23;;
26516;SDS011;14190;51.342;6.338;2023-02-15T06:28:53;85.15;;;36.58;;
26516;SDS011;14190;51.342;6.338;2023-02-15T06:31:20;89.07;;;39.55;;
26516;SDS011;14190;51.342;6.338;2023-02-15T06:33:48;88.20;;;36.98;;
26516;SDS011;14190;51.342;6.338;2023-02-15T06:36:15;85.32;;;37.13;;
26516;SDS011;14190;51.342;6.338;2023-02-15T06:38:42;87.95;;;36.55;;
26516;SDS011;14190;51.342;6.338;2023-02-15T06:41:10;89.22;;;36.93;;
26516;SDS011;14190;51.342;6.338;2023-02-15T06:43:37;87.65;;;37.17;;
26516;SDS011;14190;51.342;6.338;2023-02-15T06:46:04;84.07;;;36.75;;
26516;SDS011;14190;51.342;6.338;2023-02-15T06:48:32;77.97;;;35.00;;
26516;SDS011;14190;51.342;6.338;2023-02-15T06:50:59;83.67;;;37.48;;
26516;SDS011;14190;51.342;6.338;2023-02-15T06:53:26;85.80;;;36.98;;
26516;SDS011;14190;51.342;6.338;2023-02-15T06:56:00;83.62;;;36.33;;
26516;SDS011;14190;51.342;6.338;2023-02-15T06:58:23;84.15;;;36.20;;
26516;SDS011;14190;51.342;6.338;2023-02-15T07:00:51;80.55;;;35.50;;
26516;SDS011;14190;51.342;6.338;2023-02-15T07:03:18;92.53;;;37.78;;
26516;SDS011;14190;51.342;6.338;2023-02-15T07:05:46;81.00;;;35.35;;
26516;SDS011;14190;51.342;6.338;2023-02-15T07:08:15;86.55;;;36.03;;
26516;SDS011;14190;51.342;6.338;2023-02-15T07:10:45;75.32;;;33.75;;
26516;SDS011;14190;51.342;6.338;2023-02-15T07:15:39;81.22;;;34.58;;
26516;SDS011;14190;51.342;6.338;2023-02-15T07:18:06;78.42;;;34.50;;
26516;SDS011;14190;51.342;6.338;2023-02-15T07:20:35;75.72;;;33.98;;
26516;SDS011;14190;51.342;6.338;2023-02-15T07:23:03;76.57;;;33.73;;
26516;SDS011;14190;51.342;6.338;2023-02-15T07:25:31;85.42;;;33.88;;
26516;SDS011;14190;51.342;6.338;2023-02-15T07:28:02;83.30;;;34.83;;
26516;SDS011;14190;51.342;6.338;2023-02-15T07:30:30;79.55;;;35.20;;
26516;SDS011;14190;51.342;6.338;2023-02-15T07:32:58;94.25;;;39.20;;
26516;SDS011;14190;51.342;6.338;2023-02-15T07:35:47;77.58;;;35.33;;
26516;SDS011;14190;51.342;6.338;2023-02-15T07:38:15;77.60;;;34.03;;
26516;SDS011;14190;51.342;6.338;2023-02-15T07:40:42;78.83;;;34.48;;
26516;SDS011;14190;51.342;6.338;2023-02-15T07:43:10;77.70;;;32.00;;
26516;SDS011;14190;51.342;6.338;2023-02-15T07:45:38;78.47;;;34.70;;
26516;SDS011;14190;51.342;6.338;2023-02-15T07:48:05;75.60;;;35.38;;
26516;SDS011;14190;51.342;6.338;2023-02-15T07:50:33;75.45;;;34.80;;
26516;SDS011;14190;51.342;6.338;2023-02-15T07:53:01;75.47;;;35.80;;
26516;SDS011;14190;51.342;6.338;2023-02-15T07:55:29;137.75;;;68.15;;
26516;SDS011;14190;51.342;6.338;2023-02-15T07:57:57;117.15;;;56.42;;
26516;SDS011;14190;51.342;6.338;2023-02-15T08:00:24;105.72;;;46.42;;
26516;SDS011;14190;51.342;6.338;2023-02-15T08:02:52;73.25;;;32.10;;
26516;SDS011;14190;51.342;6.338;2023-02-15T08:05:39;65.75;;;32.28;;
26516;SDS011;14190;51.342;6.338;2023-02-15T08:08:07;65.45;;;33.88;;
26516;SDS011;14190;51.342;6.338;2023-02-15T08:10:35;59.18;;;31.25;;
26516;SDS011;14190;51.342;6.338;2023-02-15T08:13:21;62.67;;;30.23;;
26516;SDS011;14190;51.342;6.338;2023-02-15T08:15:53;58.60;;;30.92;;
26516;SDS011;14190;51.342;6.338;2023-02-15T08:18:17;62.60;;;30.23;;
26516;SDS011;14190;51.342;6.338;2023-02-15T08:20:50;65.28;;;31.70;;
26516;SDS011;14190;51.342;6.338;2023-02-15T08:23:18;55.38;;;27.42;;
26516;SDS011;14190;51.342;6.338;2023-02-15T08:25:45;59.50;;;29.25;;
26516;SDS011;14190;51.342;6.338;2023-02-15T08:28:13;61.13;;;29.72;;
26516;SDS011;14190;51.342;6.338;2023-02-15T08:30:40;59.95;;;31.33;;
26516;SDS011;14190;51.342;6.338;2023-02-15T08:33:07;57.45;;;29.23;;
26516;SDS011;14190;51.342;6.338;2023-02-15T08:35:36;60.20;;;30.20;;
26516;SDS011;14190;51.342;6.338;2023-02-15T08:38:03;60.12;;;29.27;;
26516;SDS011;14190;51.342;6.338;2023-02-15T08:40:30;54.95;;;30.05;;
26516;SDS011;14190;51.342;6.338;2023-02-15T08:42:58;52.53;;;27.70;;
26516;SDS011;14190;51.342;6.338;2023-02-15T08:45:25;57.20;;;30.10;;
26516;SDS011;14190;51.342;6.338;2023-02-15T08:47:52;52.33;;;28.67;;
26516;SDS011;14190;51.342;6.338;2023-02-15T08:50:20;57.50;;;29.75;;
26516;SDS011;14190;51.342;6.338;2023-02-15T08:52:47;61.75;;;29.95;;
26516;SDS011;14190;51.342;6.338;2023-02-15T08:55:15;54.77;;;29.35;;
26516;SDS011;14190;51.342;6.338;2023-02-15T08:57:44;53.57;;;29.13;;
26516;SDS011;14190;51.342;6.338;2023-02-15T09:00:12;58.98;;;30.65;;
26516;SDS011;14190;51.342;6.338;2023-02-15T09:02:40;65.60;;;37.28;;
26516;SDS011;14190;51.342;6.338;2023-02-15T09:05:07;65.08;;;33.13;;
26516;SDS011;14190;51.342;6.338;2023-02-15T09:07:35;52.00;;;28.65;;
26516;SDS011;14190;51.342;6.338;2023-02-15T09:10:02;56.10;;;27.25;;
26516;SDS011;14190;51.342;6.338;2023-02-15T09:12:30;53.80;;;29.05;;
26516;SDS011;14190;51.342;6.338;2023-02-15T09:14:57;51.37;;;27.77;;
26516;SDS011;14190;51.342;6.338;2023-02-15T09:17:25;67.90;;;38.23;;
26516;SDS011;14190;51.342;6.338;2023-02-15T09:19:52;153.93;;;76.92;;
26516;SDS011;14190;51.342;6.338;2023-02-15T09:22:20;79.50;;;40.65;;
26516;SDS011;14190;51.342;6.338;2023-02-15T09:24:47;50.92;;;28.57;;
26516;SDS011;14190;51.342;6.338;2023-02-15T09:27:14;51.70;;;31.07;;
26516;SDS011;14190;51.342;6.338;2023-02-15T09:29:42;51.73;;;29.37;;
26516;SDS011;14190;51.342;6.338;2023-02-15T09:32:09;51.25;;;29.63;;
26516;SDS011;14190;51.342;6.338;2023-02-15T09:34:38;50.95;;;28.27;;
26516;SDS011;14190;51.342;6.338;2023-02-15T09:37:05;51.85;;;28.60;;
26516;SDS011;14190;51.342;6.338;2023-02-15T09:39:40;49.55;;;27.77;;
26516;SDS011;14190;51.342;6.338;2023-02-15T09:47:29;43.78;;;26.02;;
26516;SDS011;14190;51.342;6.338;2023-02-15T09:50:09;48.80;;;27.87;;
26516;SDS011;14190;51.342;6.338;2023-02-15T10:00:36;46.73;;;26.73;;
26516;SDS011;14190;51.342;6.338;2023-02-15T10:08:25;49.50;;;26.17;;
26516;SDS011;14190;51.342;6.338;2023-02-15T10:10:58;49.30;;;28.30;;
26516;SDS011;14190;51.342;6.338;2023-02-15T10:13:29;43.20;;;25.57;;
26516;SDS011;14190;51.342;6.338;2023-02-15T10:18:53;46.33;;;26.10;;
26516;SDS011;14190;51.342;6.338;2023-02-15T10:21:32;46.68;;;26.93;;
26516;SDS011;14190;51.342;6.338;2023-02-15T10:24:12;50.00;;;27.93;;
26516;SDS011;14190;51.342;6.338;2023-02-15T10:26:40;45.98;;;26.17;;
26516;SDS011;14190;51.342;6.338;2023-02-15T10:29:07;43.58;;;26.95;;
26516;SDS011;14190;51.342;6.338;2023-02-15T10:36:53;44.50;;;26.17;;
26516;SDS011;14190;51.342;6.338;2023-02-15T10:39:22;43.83;;;25.45;;
26516;SDS011;14190;51.342;6.338;2023-02-15T10:49:24;46.55;;;25.82;;
26516;SDS011;14190;51.342;6.338;2023-02-15T10:52:14;43.83;;;26.27;;
26516;SDS011;14190;51.342;6.338;2023-02-15T10:59:46;46.05;;;25.40;;
26516;SDS011;14190;51.342;6.338;2023-02-15T11:07:40;49.83;;;25.90;;
26516;SDS011;14190;51.342;6.338;2023-02-15T11:12:55;50.73;;;27.17;;
26516;SDS011;14190;51.342;6.338;2023-02-15T11:15:33;48.63;;;27.10;;
26516;SDS011;14190;51.342;6.338;2023-02-15T11:18:05;40.95;;;24.77;;
26516;SDS011;14190;51.342;6.338;2023-02-15T11:20:35;43.58;;;25.23;;
26516;SDS011;14190;51.342;6.338;2023-02-15T11:23:02;46.40;;;27.02;;
26516;SDS011;14190;51.342;6.338;2023-02-15T11:25:30;49.75;;;27.87;;
26516;SDS011;14190;51.342;6.338;2023-02-15T11:27:58;44.85;;;26.00;;
26516;SDS011;14190;51.342;6.338;2023-02-15T11:30:33;46.70;;;26.85;;
26516;SDS011;14190;51.342;6.338;2023-02-15T11:32:56;47.20;;;25.60;;
26516;SDS011;14190;51.342;6.338;2023-02-15T11:35:31;51.45;;;28.15;;
26516;SDS011;14190;51.342;6.338;2023-02-15T11:38:06;42.03;;;24.92;;
26516;SDS011;14190;51.342;6.338;2023-02-15T11:40:35;42.93;;;25.20;;
26516;SDS011;14190;51.342;6.338;2023-02-15T11:43:23;42.00;;;25.97;;
26516;SDS011;14190;51.342;6.338;2023-02-15T11:45:50;45.80;;;25.80;;
26516;SDS011;14190;51.342;6.338;2023-02-15T11:48:17;56.05;;;29.25;;
26516;SDS011;14190;51.342;6.338;2023-02-15T11:50:45;47.43;;;27.62;;
26516;SDS011;14190;51.342;6.338;2023-02-15T11:53:18;70.40;;;35.08;;
26516;SDS011;14190;51.342;6.338;2023-02-15T11:55:42;54.27;;;32.23;;
26516;SDS011;14190;51.342;6.338;2023-02-15T12:00:43;40.25;;;24.00;;
26516;SDS011;14190;51.342;6.338;2023-02-15T12:03:57;42.25;;;24.40;;
26516;SDS011;14190;51.342;6.338;2023-02-15T12:05:44;46.50;;;27.05;;
26516;SDS011;14190;51.342;6.338;2023-02-15T12:11:03;44.20;;;27.48;;
26516;SDS011;14190;51.342;6.338;2023-02-15T12:13:15;51.40;;;30.17;;
26516;SDS011;14190;51.342;6.338;2023-02-15T12:15:52;43.55;;;25.72;;
26516;SDS011;14190;51.342;6.338;2023-02-15T12:18:19;48.10;;;29.35;;
26516;SDS011;14190;51.342;6.338;2023-02-15T12:20:46;72.95;;;40.95;;
26516;SDS011;14190;51.342;6.338;2023-02-15T12:23:16;77.27;;;43.40;;
26516;SDS011;14190;51.342;6.338;2023-02-15T12:25:54;41.63;;;25.40;;
26516;SDS011;14190;51.342;6.338;2023-02-15T12:30:59;47.67;;;26.80;;
26516;SDS011;14190;51.342;6.338;2023-02-15T12:33:30;46.28;;;25.68;;
26516;SDS011;14190;51.342;6.338;2023-02-15T12:35:59;42.50;;;26.82;;
26516;SDS011;14190;51.342;6.338;2023-02-15T12:38:27;34.03;;;22.62;;
26516;SDS011;14190;51.342;6.338;2023-02-15T12:41:01;39.23;;;23.77;;
26516;SDS011;14190;51.342;6.338;2023-02-15T12:43:31;40.43;;;24.75;;
26516;SDS011;14190;51.342;6.338;2023-02-15T12:48:44;43.15;;;25.30;;
26516;SDS011;14190;51.342;6.338;2023-02-15T12:51:13;40.33;;;24.65;;
26516;SDS011;14190;51.342;6.338;2023-02-15T12:53:40;48.87;;;25.72;;
26516;SDS011;14190;51.342;6.338;2023-02-15T12:56:09;41.40;;;24.60;;
26516;SDS011;14190;51.342;6.338;2023-02-15T12:58:37;42.50;;;23.35;;
26516;SDS011;14190;51.342;6.338;2023-02-15T13:01:14;40.90;;;24.30;;
26516;SDS011;14190;51.342;6.338;2023-02-15T13:04:01;39.53;;;24.75;;
26516;SDS011;14190;51.342;6.338;2023-02-15T13:06:31;43.17;;;26.02;;
26516;SDS011;14190;51.342;6.338;2023-02-15T13:09:44;42.35;;;24.30;;
26516;SDS011;14190;51.342;6.338;2023-02-15T13:11:30;41.70;;;24.55;;
26516;SDS011;14190;51.342;6.338;2023-02-15T13:14:02;51.92;;;26.62;;
26516;SDS011;14190;51.342;6.338;2023-02-15T13:16:30;47.88;;;27.05;;
26516;SDS011;14190;51.342;6.338;2023-02-15T13:19:03;44.05;;;25.48;;
26516;SDS011;14190;51.342;6.338;2023-02-15T13:21:30;45.67;;;26.30;;
26516;SDS011;14190;51.342;6.338;2023-02-15T13:23:57;41.92;;;26.75;;
26516;SDS011;14190;51.342;6.338;2023-02-15T13:26:26;47.43;;;26.77;;
26516;SDS011;14190;51.342;6.338;2023-02-15T13:28:54;45.35;;;24.63;;
26516;SDS011;14190;51.342;6.338;2023-02-15T13:31:26;40.88;;;26.05;;
26516;SDS011;14190;51.342;6.338;2023-02-15T13:33:58;46.08;;;25.80;;
26516;SDS011;14190;51.342;6.338;2023-02-15T13:42:05;43.13;;;24.07;;
26516;SDS011;14190;51.342;6.338;2023-02-15T13:44:24;39.90;;;24.75;;
26516;SDS011;14190;51.342;6.338;2023-02-15T13:46:51;43.23;;;25.30;;
26516;SDS011;14190;51.342;6.338;2023-02-15T13:52:08;56.45;;;24.87;;
26516;SDS011;14190;51.342;6.338;2023-02-15T13:54:36;38.88;;;24.70;;
26516;SDS011;14190;51.342;6.338;2023-02-15T13:59:54;43.75;;;24.63;;
26516;SDS011;14190;51.342;6.338;2023-02-15T14:15:32;42.70;;;24.92;;
26516;SDS011;14190;51.342;6.338;2023-02-15T14:20:47;43.38;;;23.85;;
26516;SDS011;14190;51.342;6.338;2023-02-15T14:25:48;43.85;;;25.15;;
26516;SDS011;14190;51.342;6.338;2023-02-15T14:28:27;42.78;;;25.00;;
26516;SDS011;14190;51.342;6.338;2023-02-15T14:30:55;39.70;;;25.50;;
26516;SDS011;14190;51.342;6.338;2023-02-15T14:33:31;41.40;;;23.70;;
26516;SDS011;14190;51.342;6.338;2023-02-15T14:35:59;37.53;;;24.02;;
26516;SDS011;14190;51.342;6.338;2023-02-15T14:41:08;41.20;;;23.80;;
26516;SDS011;14190;51.342;6.338;2023-02-15T14:46:36;40.45;;;24.25;;
26516;SDS011;14190;51.342;6.338;2023-02-15T14:49:05;43.83;;;23.32;;
26516;SDS011;14190;51.342;6.338;2023-02-15T14:54:10;40.83;;;24.00;;
26516;SDS011;14190;51.342;6.338;2023-02-15T14:56:38;43.80;;;22.95;;
26516;SDS011;14190;51.342;6.338;2023-02-15T14:59:19;42.23;;;22.85;;
26516;SDS011;14190;51.342;6.338;2023-02-15T15:04:54;39.90;;;23.40;;
26516;SDS011;14190;51.342;6.338;2023-02-15T15:07:19;40.38;;;22.65;;
26516;SDS011;14190;51.342;6.338;2023-02-15T15:09:43;39.78;;;21.90;;
26516;SDS011;14190;51.342;6.338;2023-02-15T15:14:55;43.30;;;24.63;;
26516;SDS011;14190;51.342;6.338;2023-02-15T15:20:03;39.03;;;21.62;;
26516;SDS011;14190;51.342;6.338;2023-02-15T15:22:34;40.55;;;25.05;;
26516;SDS011;14190;51.342;6.338;2023-02-15T15:25:02;38.65;;;22.93;;
26516;SDS011;14190;51.342;6.338;2023-02-15T15:27:37;41.75;;;23.95;;
26516;SDS011;14190;51.342;6.338;2023-02-15T15:30:47;35.48;;;23.07;;
26516;SDS011;14190;51.342;6.338;2023-02-15T15:32:36;41.30;;;24.20;;
26516;SDS011;14190;51.342;6.338;2023-02-15T15:35:12;35.15;;;20.72;;
26516;SDS011;14190;51.342;6.338;2023-02-15T15:42:49;48.75;;;23.38;;
26516;SDS011;14190;51.342;6.338;2023-02-15T15:45:26;36.93;;;24.02;;
26516;SDS011;14190;51.342;6.338;2023-02-15T15:50:30;43.78;;;23.20;;
26516;SDS011;14190;51.342;6.338;2023-02-15T15:52:59;45.23;;;24.70;;
26516;SDS011;14190;51.342;6.338;2023-02-15T15:55:30;40.43;;;21.82;;
26516;SDS011;14190;51.342;6.338;2023-02-15T15:58:00;36.45;;;25.02;;
26516;SDS011;14190;51.342;6.338;2023-02-15T16:02:58;42.67;;;24.52;;
26516;SDS011;14190;51.342;6.338;2023-02-15T16:05:26;38.45;;;23.05;;
26516;SDS011;14190;51.342;6.338;2023-02-15T16:07:53;46.18;;;25.17;;
26516;SDS011;14190;51.342;6.338;2023-02-15T16:10:29;47.85;;;25.08;;
26516;SDS011;14190;51.342;6.338;2023-02-15T16:12:53;38.78;;;24.25;;
26516;SDS011;14190;51.342;6.338;2023-02-15T16:15:25;46.77;;;25.10;;
26516;SDS011;14190;51.342;6.338;2023-02-15T16:17:54;45.98;;;26.77;;
26516;SDS011;14190;51.342;6.338;2023-02-15T16:20:28;43.58;;;26.50;;
26516;SDS011;14190;51.342;6.338;2023-02-15T16:23:14;44.73;;;25.25;;
26516;SDS011;14190;51.342;6.338;2023-02-15T16:25:32;50.80;;;27.20;;
26516;SDS011;14190;51.342;6.338;2023-02-15T16:28:08;48.08;;;26.07;;
26516;SDS011;14190;51.342;6.338;2023-02-15T16:30:36;50.92;;;28.42;;
26516;SDS011;14190;51.342;6.338;2023-02-15T16:33:06;50.83;;;29.12;;
26516;SDS011;14190;51.342;6.338;2023-02-15T16:35:38;53.52;;;27.20;;
26516;SDS011;14190;51.342;6.338;2023-02-15T16:38:08;49.13;;;27.00;;
26516;SDS011;14190;51.342;6.338;2023-02-15T16:40:40;103.80;;;45.17;;
26516;SDS011;14190;51.342;6.338;2023-02-15T16:43:10;58.48;;;31.75;;
26516;SDS011;14190;51.342;6.338;2023-02-15T16:45:36;53.98;;;29.10;;